createdAt,value
2023-01-17T00:00:41.245Z,982.82
2023-01-17T00:02:36.164Z,982.77
2023-01-17T00:04:35.403Z,982.77
2023-01-17T00:06:35.770Z,982.87
2023-01-17T00:08:35.301Z,982.87
2023-01-17T00:10:36.023Z,982.8
2023-01-17T00:12:35.457Z,982.8
2023-01-17T00:14:35.810Z,983.03
2023-01-17T00:16:35.443Z,983.03
2023-01-17T00:18:35.921Z,982.91
2023-01-17T00:20:35.450Z,982.91
2023-01-17T00:22:35.861Z,982.86
2023-01-17T00:24:35.653Z,982.86
2023-01-17T00:26:35.925Z,982.89
2023-01-17T00:28:35.322Z,982.89
2023-01-17T00:30:35.867Z,982.94
2023-01-17T00:32:35.327Z,982.94
2023-01-17T00:34:35.719Z,982.97
2023-01-17T00:36:35.035Z,982.97
2023-01-17T00:38:35.696Z,982.99
2023-01-17T00:40:35.175Z,982.99
2023-01-17T00:42:35.807Z,983.05
2023-01-17T00:44:35.246Z,983.05
2023-01-17T00:46:36.265Z,983.06
2023-01-17T00:48:35.556Z,983.06
2023-01-17T00:50:35.142Z,983.15
2023-01-17T00:52:35.671Z,983.15
2023-01-17T00:54:35.193Z,983.13
2023-01-17T00:56:35.587Z,983.13
2023-01-17T00:58:35.171Z,983.3
2023-01-17T01:00:38.142Z,983.3
2023-01-17T01:02:39.850Z,983.49
2023-01-17T01:04:35.279Z,983.49
2023-01-17T01:06:35.557Z,983.32
2023-01-17T01:08:35.189Z,983.32
2023-01-17T01:10:35.841Z,983.31
2023-01-17T01:12:35.315Z,983.31
2023-01-17T01:14:35.838Z,983.35
2023-01-17T01:16:35.842Z,983.35
2023-01-17T01:18:35.955Z,983.52
2023-01-17T01:20:35.460Z,983.52
2023-01-17T01:22:36.050Z,983.51
2023-01-17T01:24:35.574Z,983.51
2023-01-17T01:26:36.040Z,983.54
2023-01-17T01:28:35.463Z,983.54
2023-01-17T01:30:35.976Z,983.54
2023-01-17T01:32:35.483Z,983.54
2023-01-17T01:34:35.959Z,983.54
2023-01-17T01:36:35.312Z,983.54
2023-01-17T01:38:35.914Z,983.69
2023-01-17T01:40:35.442Z,983.69
2023-01-17T01:42:35.840Z,983.69
2023-01-17T01:44:35.299Z,983.69
2023-01-17T01:46:36.032Z,983.82
2023-01-17T01:48:35.396Z,983.82
2023-01-17T01:50:35.886Z,983.77
2023-01-17T01:52:35.448Z,983.77
2023-01-17T01:54:36.003Z,983.97
2023-01-17T01:56:35.403Z,983.97
2023-01-17T01:58:35.734Z,983.94
2023-01-17T02:00:38.573Z,983.94
2023-01-17T02:02:35.365Z,984.01
2023-01-17T02:04:35.975Z,984.01
2023-01-17T02:06:35.332Z,983.96
2023-01-17T02:08:35.963Z,983.96
2023-01-17T02:10:35.792Z,984.08
2023-01-17T02:12:35.198Z,984.08
2023-01-17T02:14:35.762Z,984.09
2023-01-17T02:16:35.691Z,984.09
2023-01-17T02:18:35.861Z,984.04
2023-01-17T02:20:36.251Z,984.04
2023-01-17T02:22:35.506Z,984.05
2023-01-17T02:24:36.099Z,984.05
2023-01-17T02:26:35.612Z,984.21
2023-01-17T02:28:35.082Z,984.21
2023-01-17T02:30:35.652Z,984.21
2023-01-17T02:32:35.255Z,984.21
2023-01-17T02:34:35.691Z,984.19
2023-01-17T02:36:35.286Z,984.19
2023-01-17T02:38:35.984Z,984.31
2023-01-17T02:40:35.381Z,984.31
2023-01-17T02:42:35.800Z,984.24
2023-01-17T02:44:35.438Z,984.24
2023-01-17T02:46:35.993Z,984.14
2023-01-17T02:48:35.416Z,984.14
2023-01-17T02:50:35.988Z,984.18
2023-01-17T02:52:35.213Z,984.18
2023-01-17T02:54:35.794Z,984.22
2023-01-17T02:56:35.242Z,984.22
2023-01-17T02:58:35.784Z,984.12
2023-01-17T03:00:38.025Z,984.12
2023-01-17T03:02:36.391Z,984.05
2023-01-17T03:04:35.245Z,984.05
2023-01-17T03:06:35.781Z,984.17
2023-01-17T03:08:35.284Z,984.17
2023-01-17T03:10:35.894Z,984.31
2023-01-17T03:12:35.338Z,984.31
2023-01-17T03:14:35.779Z,984.4
2023-01-17T03:16:35.661Z,984.34
2023-01-17T03:18:35.880Z,984.34
2023-01-17T03:20:35.335Z,984.37
2023-01-17T03:22:35.733Z,984.37
2023-01-17T03:24:35.396Z,984.42
2023-01-17T03:26:36.012Z,984.42
2023-01-17T03:28:35.169Z,984.36
2023-01-17T03:30:35.780Z,984.36
2023-01-17T03:32:35.099Z,984.42
2023-01-17T03:34:35.531Z,984.42
2023-01-17T03:36:36.014Z,984.33
2023-01-17T03:38:35.526Z,984.33
2023-01-17T03:40:36.066Z,984.41
2023-01-17T03:42:35.381Z,984.41
2023-01-17T03:44:35.828Z,984.43
2023-01-17T03:46:35.560Z,984.43
2023-01-17T03:48:35.898Z,984.49
2023-01-17T03:50:35.389Z,984.49
2023-01-17T03:52:36.036Z,984.53
2023-01-17T03:54:35.436Z,984.53
2023-01-17T03:56:35.871Z,984.5
2023-01-17T03:58:35.315Z,984.5
2023-01-17T04:00:38.350Z,984.53
2023-01-17T04:02:36.214Z,984.53
2023-01-17T04:04:35.146Z,984.65
2023-01-17T04:06:35.457Z,984.65
2023-01-17T04:08:35.105Z,984.65
2023-01-17T04:10:35.505Z,984.65
2023-01-17T04:12:35.861Z,984.64
2023-01-17T04:14:35.357Z,984.64
2023-01-17T04:16:35.949Z,984.64
2023-01-17T04:18:35.368Z,984.64
2023-01-17T04:20:35.912Z,984.69
2023-01-17T04:22:35.229Z,984.69
2023-01-17T04:24:35.959Z,984.72
2023-01-17T04:26:35.325Z,984.72
2023-01-17T04:28:35.716Z,984.72
2023-01-17T04:30:35.521Z,984.72
2023-01-17T04:32:35.751Z,984.78
2023-01-17T04:34:35.331Z,984.78
2023-01-17T04:36:35.770Z,984.73
2023-01-17T04:38:35.440Z,984.73
2023-01-17T04:40:36.017Z,984.79
2023-01-17T04:42:35.389Z,984.79
2023-01-17T04:44:35.893Z,984.86
2023-01-17T04:46:35.675Z,984.86
2023-01-17T04:48:36.128Z,984.87
2023-01-17T04:50:35.495Z,984.87
2023-01-17T04:52:35.097Z,984.95
2023-01-17T04:54:35.658Z,984.95
2023-01-17T04:56:35.159Z,984.75
2023-01-17T04:58:35.865Z,984.75
2023-01-17T05:00:39.187Z,984.83
2023-01-17T05:02:35.477Z,984.83
2023-01-17T05:04:36.031Z,984.9
2023-01-17T05:06:35.372Z,984.9
2023-01-17T05:08:35.994Z,984.99
2023-01-17T05:10:35.639Z,984.99
2023-01-17T05:12:35.160Z,984.93
2023-01-17T05:14:35.493Z,984.93
2023-01-17T05:16:35.190Z,984.92
2023-01-17T05:18:35.796Z,984.92
2023-01-17T05:20:35.264Z,984.94
2023-01-17T05:22:35.732Z,984.94
2023-01-17T05:24:35.381Z,985.12
2023-01-17T05:26:35.117Z,985.12
2023-01-17T05:28:35.564Z,985.06
2023-01-17T05:30:35.112Z,985.06
2023-01-17T05:32:35.696Z,985.15
2023-01-17T05:34:35.239Z,985.15
2023-01-17T05:36:35.546Z,985.09
2023-01-17T05:38:35.966Z,985.09
2023-01-17T05:40:35.594Z,985.25
2023-01-17T05:42:35.887Z,985.25
2023-01-17T05:44:35.411Z,985.25
2023-01-17T05:46:35.967Z,985.25
2023-01-17T05:48:35.241Z,985.2
2023-01-17T05:50:35.599Z,985.2
2023-01-17T05:52:36.032Z,985.29
2023-01-17T05:54:35.459Z,985.29
2023-01-17T05:56:35.783Z,985.22
2023-01-17T05:58:35.546Z,985.22
2023-01-17T06:00:38.786Z,985.19
2023-01-17T06:02:35.960Z,985.19
2023-01-17T06:04:35.361Z,985.34
2023-01-17T06:06:35.551Z,985.34
2023-01-17T06:08:36.104Z,985.36
2023-01-17T06:10:35.668Z,985.36
2023-01-17T06:12:35.941Z,985.39
2023-01-17T06:14:35.636Z,985.39
2023-01-17T06:16:36.461Z,985.46
2023-01-17T06:18:35.610Z,985.46
2023-01-17T06:20:36.090Z,985.39
2023-01-17T06:22:35.508Z,985.39
2023-01-17T06:24:38.091Z,985.3
2023-01-17T06:26:35.187Z,985.3
2023-01-17T06:28:35.521Z,985.4
2023-01-17T06:30:35.955Z,985.4
2023-01-17T06:32:35.710Z,985.49
2023-01-17T06:34:35.780Z,985.32
2023-01-17T06:36:35.377Z,985.32
2023-01-17T06:38:35.791Z,985.44
2023-01-17T06:40:35.321Z,985.44
2023-01-17T06:42:35.669Z,985.43
2023-01-17T06:44:35.137Z,985.43
2023-01-17T06:46:35.890Z,985.47
2023-01-17T06:48:35.259Z,985.47
2023-01-17T06:50:35.655Z,985.48
2023-01-17T06:52:35.974Z,985.48
2023-01-17T06:54:35.467Z,985.47
2023-01-17T06:56:35.653Z,985.47
2023-01-17T06:58:35.306Z,985.5
2023-01-17T07:00:40.710Z,985.5
2023-01-17T07:02:35.829Z,985.64
2023-01-17T07:04:35.381Z,985.64
2023-01-17T07:06:35.598Z,985.62
2023-01-17T07:08:35.295Z,985.62
2023-01-17T07:10:35.926Z,985.58
2023-01-17T07:12:35.200Z,985.58
2023-01-17T07:14:35.682Z,985.6
2023-01-17T07:16:36.296Z,985.6
2023-01-17T07:18:35.608Z,985.76
2023-01-17T07:20:35.953Z,985.76
2023-01-17T07:22:35.322Z,985.66
2023-01-17T07:24:35.699Z,985.66
2023-01-17T07:26:35.958Z,985.69
2023-01-17T07:28:35.604Z,985.69
2023-01-17T07:30:36.066Z,985.64
2023-01-17T07:32:35.403Z,985.64
2023-01-17T07:34:35.843Z,985.77
2023-01-17T07:36:35.133Z,985.77
2023-01-17T07:38:35.820Z,985.71
2023-01-17T07:40:41.853Z,985.71
2023-01-17T07:42:35.833Z,985.65
2023-01-17T07:44:35.143Z,985.65
2023-01-17T07:46:36.477Z,985.7
2023-01-17T07:48:35.885Z,985.7
2023-01-17T07:50:35.364Z,985.73
2023-01-17T07:52:35.876Z,985.73
2023-01-17T07:54:35.348Z,985.73
2023-01-17T07:56:35.725Z,985.73
2023-01-17T07:58:37.036Z,985.73
2023-01-17T08:00:38.174Z,985.73
2023-01-17T08:02:36.045Z,985.63
2023-01-17T08:04:35.342Z,985.63
2023-01-17T08:06:35.852Z,985.7
2023-01-17T08:08:35.258Z,985.7
2023-01-17T08:10:35.831Z,985.66
2023-01-17T08:12:35.140Z,985.66
2023-01-17T08:14:35.710Z,985.62
2023-01-17T08:16:35.453Z,985.62
2023-01-17T08:18:35.724Z,985.73
2023-01-17T08:20:38.884Z,985.73
2023-01-17T08:22:35.672Z,985.61
2023-01-17T08:24:35.112Z,985.61
2023-01-17T08:26:35.640Z,985.6
2023-01-17T08:28:35.100Z,985.6
2023-01-17T08:30:35.675Z,985.8
2023-01-17T08:32:35.769Z,985.8
2023-01-17T08:34:35.298Z,985.77
2023-01-17T08:36:35.740Z,985.77
2023-01-17T08:38:35.255Z,985.75
2023-01-17T08:40:35.824Z,985.75
2023-01-17T08:42:35.533Z,985.91
2023-01-17T08:44:35.970Z,985.91
2023-01-17T08:46:35.565Z,985.82
2023-01-17T08:48:35.976Z,985.82
2023-01-17T08:50:35.620Z,985.79
2023-01-17T08:52:36.023Z,985.79
2023-01-17T08:54:35.584Z,985.8
2023-01-17T08:56:35.741Z,985.8
2023-01-17T08:58:35.419Z,985.82
2023-01-17T09:00:38.495Z,985.82
2023-01-17T09:02:35.508Z,985.9
2023-01-17T09:04:35.805Z,985.9
2023-01-17T09:06:35.121Z,985.87
2023-01-17T09:08:35.753Z,985.87
2023-01-17T09:10:35.131Z,985.99
2023-01-17T09:12:35.595Z,985.99
2023-01-17T09:14:36.091Z,985.85
2023-01-17T09:16:35.697Z,985.85
2023-01-17T09:18:35.873Z,985.94
2023-01-17T09:20:35.512Z,985.94
2023-01-17T09:22:35.093Z,986
2023-01-17T09:24:35.596Z,986
2023-01-17T09:26:36.082Z,985.91
2023-01-17T09:28:35.624Z,985.91
2023-01-17T09:30:35.222Z,985.99
2023-01-17T09:32:35.439Z,985.99
2023-01-17T09:34:35.983Z,986.02
2023-01-17T09:36:35.634Z,986.02
2023-01-17T09:38:35.133Z,986.15
2023-01-17T09:40:35.539Z,986.15
2023-01-17T09:42:35.159Z,986.26
2023-01-17T09:44:35.655Z,986.26
2023-01-17T09:46:35.411Z,986.19
2023-01-17T09:48:35.726Z,986.19
2023-01-17T09:50:35.358Z,986.23
2023-01-17T09:52:35.647Z,986.23
2023-01-17T09:54:35.987Z,986.34
2023-01-17T09:56:35.478Z,986.33
2023-01-17T09:58:36.012Z,986.33
2023-01-17T10:00:42.105Z,986.43
2023-01-17T10:02:38.223Z,986.43
2023-01-17T10:04:36.504Z,986.51
2023-01-17T10:06:35.622Z,986.51
2023-01-17T10:08:38.376Z,986.45
2023-01-17T10:10:35.602Z,986.45
2023-01-17T10:12:35.142Z,986.45
2023-01-17T10:14:35.544Z,986.45
2023-01-17T10:16:35.328Z,986.48
2023-01-17T10:18:52.009Z,986.48
2023-01-17T10:20:35.214Z,986.4
2023-01-17T10:22:35.632Z,986.4
2023-01-17T10:24:35.939Z,986.54
2023-01-17T10:26:35.365Z,986.54
2023-01-17T10:28:35.922Z,986.56
2023-01-17T10:30:35.462Z,986.56
2023-01-17T10:32:35.793Z,986.59
2023-01-17T10:34:35.320Z,986.59
2023-01-17T10:36:35.758Z,986.59
2023-01-17T10:38:35.232Z,986.59
2023-01-17T10:40:35.943Z,986.57
2023-01-17T10:42:35.398Z,986.57
2023-01-17T10:44:35.992Z,986.53
2023-01-17T10:46:35.638Z,986.53
2023-01-17T10:48:36.016Z,986.55
2023-01-17T10:50:35.411Z,986.55
2023-01-17T10:52:35.906Z,986.46
2023-01-17T10:54:35.860Z,986.46
2023-01-17T10:56:35.553Z,986.65
2023-01-17T10:58:35.990Z,986.65
2023-01-17T11:00:40.803Z,986.61
2023-01-17T11:02:35.835Z,986.61
2023-01-17T11:04:35.786Z,986.53
2023-01-17T11:06:37.905Z,986.53
2023-01-17T11:08:35.938Z,986.62
2023-01-17T11:10:35.289Z,986.62
2023-01-17T11:12:36.006Z,986.53
2023-01-17T11:14:35.398Z,986.53
2023-01-17T11:16:38.748Z,986.45
2023-01-17T11:18:35.116Z,986.45
2023-01-17T11:20:35.735Z,986.44
2023-01-17T11:22:35.320Z,986.44
2023-01-17T11:24:35.716Z,986.47
2023-01-17T11:26:35.244Z,986.47
2023-01-17T11:28:35.848Z,986.53
2023-01-17T11:30:35.349Z,986.53
2023-01-17T11:32:35.700Z,986.55
2023-01-17T11:34:35.348Z,986.55
2023-01-17T11:36:35.948Z,986.47
2023-01-17T11:38:35.263Z,986.47
2023-01-17T11:40:36.021Z,986.48
2023-01-17T11:42:35.428Z,986.48
2023-01-17T11:44:35.789Z,986.43
2023-01-17T11:46:35.869Z,986.43
2023-01-17T11:48:35.895Z,986.5
2023-01-17T11:50:35.585Z,986.5
2023-01-17T11:52:35.952Z,986.45
2023-01-17T11:54:35.331Z,986.45
2023-01-17T11:56:35.929Z,986.38
2023-01-17T11:58:35.491Z,986.38
2023-01-17T12:00:36.927Z,986.44
2023-01-17T12:02:35.630Z,986.44
2023-01-17T12:04:36.638Z,986.37
2023-01-17T12:06:44.782Z,986.37
2023-01-17T12:08:35.826Z,986.37
2023-01-17T12:10:35.260Z,986.37
2023-01-17T12:12:38.209Z,986.36
2023-01-17T12:14:35.414Z,986.36
2023-01-17T12:16:36.070Z,986.31
2023-01-17T12:18:35.441Z,986.31
2023-01-17T12:20:35.971Z,986.33
2023-01-17T12:22:35.294Z,986.33
2023-01-17T12:24:35.768Z,986.27
2023-01-17T12:26:35.336Z,986.27
2023-01-17T12:28:35.754Z,986.18
2023-01-17T12:30:35.266Z,986.18
2023-01-17T12:32:35.771Z,986.12
2023-01-17T12:34:35.475Z,986.12
2023-01-17T12:36:35.974Z,986.18
2023-01-17T12:38:54.927Z,986.18
2023-01-17T12:40:35.365Z,986.07
2023-01-17T12:42:35.774Z,986.07
2023-01-17T12:44:35.108Z,986.11
2023-01-17T12:46:35.760Z,986.11
2023-01-17T12:48:36.155Z,986.14
2023-01-17T12:50:35.515Z,986.14
2023-01-17T12:52:35.943Z,986.03
2023-01-17T12:54:35.839Z,986.03
2023-01-17T12:56:36.073Z,986.09
2023-01-17T12:58:35.406Z,986.09
2023-01-17T13:00:38.329Z,986.16
2023-01-17T13:02:35.321Z,986.16
2023-01-17T13:04:37.298Z,986.09
2023-01-17T13:06:35.056Z,986.09
2023-01-17T13:08:35.747Z,986.15
2023-01-17T13:10:36.122Z,986.15
2023-01-17T13:12:35.542Z,986.06
2023-01-17T13:14:35.038Z,986.06
2023-01-17T13:16:35.570Z,986.13
2023-01-17T13:18:36.010Z,986.19
2023-01-17T13:20:35.505Z,986.19
2023-01-17T13:22:35.913Z,986.21
2023-01-17T13:24:35.236Z,986.21
2023-01-17T13:26:35.800Z,986.11
2023-01-17T13:28:35.426Z,986.11
2023-01-17T13:30:35.754Z,986.19
2023-01-17T13:32:35.432Z,986.19
2023-01-17T13:34:35.872Z,986.21
2023-01-17T13:36:37.132Z,986.21
2023-01-17T13:38:35.634Z,986.18
2023-01-17T13:40:35.105Z,986.18
2023-01-17T13:42:35.674Z,986.18
2023-01-17T13:44:36.063Z,986.18
2023-01-17T13:46:35.462Z,986.23
2023-01-17T13:48:36.025Z,986.23
2023-01-17T13:50:35.576Z,986.17
2023-01-17T13:52:35.761Z,986.17
2023-01-17T13:54:35.355Z,986.18
2023-01-17T13:56:35.912Z,986.18
2023-01-17T13:58:35.301Z,986.23
2023-01-17T14:00:40.371Z,986.23
2023-01-17T14:02:35.225Z,986.29
2023-01-17T14:04:35.887Z,986.29
2023-01-17T14:06:37.709Z,986.26
2023-01-17T14:08:35.773Z,986.26
2023-01-17T14:10:35.440Z,986.3
2023-01-17T14:12:35.942Z,986.3
2023-01-17T14:14:35.432Z,986.32
2023-01-17T14:16:36.201Z,986.32
2023-01-17T14:18:35.433Z,986.28
2023-01-17T14:20:35.806Z,986.28
2023-01-17T14:22:37.124Z,986.44
2023-01-17T14:24:36.002Z,986.44
2023-01-17T14:26:35.390Z,986.39
2023-01-17T14:28:35.924Z,986.39
2023-01-17T14:30:35.548Z,986.5
2023-01-17T14:32:36.106Z,986.5
2023-01-17T14:34:35.605Z,986.36
2023-01-17T14:36:35.858Z,986.36
2023-01-17T14:38:35.368Z,986.42
2023-01-17T14:40:36.003Z,986.42
2023-01-17T14:42:35.507Z,986.49
2023-01-17T14:44:36.020Z,986.49
2023-01-17T14:46:35.538Z,986.55
2023-01-17T14:48:36.027Z,986.55
2023-01-17T14:50:35.459Z,986.65
2023-01-17T14:52:35.999Z,986.65
2023-01-17T14:54:35.547Z,986.63
2023-01-17T14:56:35.014Z,986.63
2023-01-17T14:58:35.530Z,986.7
2023-01-17T15:00:41.258Z,986.7
2023-01-17T15:02:43.165Z,986.64
2023-01-17T15:04:35.488Z,986.64
2023-01-17T15:06:38.631Z,986.78
2023-01-17T15:08:35.427Z,986.78
2023-01-17T15:10:35.775Z,986.71
2023-01-17T15:12:35.161Z,986.71
2023-01-17T15:14:35.669Z,986.74
2023-01-17T15:16:35.472Z,986.74
2023-01-17T15:18:35.930Z,986.71
2023-01-17T15:20:35.330Z,986.71
2023-01-17T15:22:35.594Z,986.71
2023-01-17T15:24:35.106Z,986.71
2023-01-17T15:26:35.685Z,986.64
2023-01-17T15:28:35.045Z,986.64
2023-01-17T15:30:35.939Z,986.61
2023-01-17T15:32:35.400Z,986.61
2023-01-17T15:34:35.755Z,986.67
2023-01-17T15:36:35.266Z,986.67
2023-01-17T15:38:39.175Z,986.76
2023-01-17T15:40:35.253Z,986.76
2023-01-17T15:42:35.678Z,986.69
2023-01-17T15:44:47.120Z,986.69
2023-01-17T15:46:36.268Z,986.64
2023-01-17T15:48:35.369Z,986.64
2023-01-17T15:50:35.848Z,986.76
2023-01-17T15:52:35.671Z,986.76
2023-01-17T15:54:35.302Z,986.7
2023-01-17T15:56:35.967Z,986.7
2023-01-17T15:58:36.000Z,986.77
2023-01-17T16:00:38.815Z,986.77
2023-01-17T16:02:36.144Z,986.8
2023-01-17T16:04:35.050Z,986.8
2023-01-17T16:06:35.596Z,986.85
2023-01-17T16:08:37.689Z,986.85
2023-01-17T16:10:35.567Z,986.89
2023-01-17T16:12:35.827Z,986.89
2023-01-17T16:14:53.539Z,986.9
2023-01-17T16:16:36.367Z,986.9
2023-01-17T16:18:35.268Z,986.87
2023-01-17T16:20:35.549Z,986.87
2023-01-17T16:22:36.079Z,986.89
2023-01-17T16:24:35.609Z,986.89
2023-01-17T16:26:35.146Z,986.86
2023-01-17T16:28:35.647Z,986.86
2023-01-17T16:30:36.150Z,986.96
2023-01-17T16:32:35.642Z,986.96
2023-01-17T16:34:35.254Z,986.93
2023-01-17T16:36:36.006Z,986.93
2023-01-17T16:38:35.419Z,987.02
2023-01-17T16:40:35.821Z,987.01
2023-01-17T16:42:35.335Z,987.01
2023-01-17T16:44:36.110Z,987.16
2023-01-17T16:46:35.780Z,987.16
2023-01-17T16:48:35.186Z,987.26
2023-01-17T16:50:35.791Z,987.26
2023-01-17T16:52:35.399Z,987.24
2023-01-17T16:54:35.690Z,987.24
2023-01-17T16:56:35.223Z,987.25
2023-01-17T16:58:35.925Z,987.25
2023-01-17T17:00:38.172Z,987.31
2023-01-17T17:02:35.716Z,987.31
2023-01-17T17:04:35.752Z,987.33
2023-01-17T17:06:35.532Z,987.33
2023-01-17T17:08:35.975Z,987.33
2023-01-17T17:10:35.463Z,987.33
2023-01-17T17:12:35.053Z,987.28
2023-01-17T17:14:35.698Z,987.28
2023-01-17T17:16:35.364Z,987.34
2023-01-17T17:18:35.495Z,987.34
2023-01-17T17:20:36.592Z,987.38
2023-01-17T17:22:35.560Z,987.38
2023-01-17T17:24:35.158Z,987.46
2023-01-17T17:26:35.569Z,987.46
2023-01-17T17:28:35.965Z,987.47
2023-01-17T17:30:35.592Z,987.47
2023-01-17T17:32:35.944Z,987.49
2023-01-17T17:34:35.409Z,987.49
2023-01-17T17:36:35.788Z,987.45
2023-01-17T17:38:35.334Z,987.45
2023-01-17T17:40:35.978Z,987.66
2023-01-17T17:42:35.500Z,987.66
2023-01-17T17:44:36.137Z,987.57
2023-01-17T17:46:36.003Z,987.57
2023-01-17T17:48:36.139Z,987.66
2023-01-17T17:50:35.516Z,987.66
2023-01-17T17:52:36.076Z,987.65
2023-01-17T17:54:35.503Z,987.65
2023-01-17T17:56:35.757Z,987.67
2023-01-17T17:58:35.416Z,987.67
2023-01-17T18:00:42.259Z,987.6
2023-01-17T18:02:36.222Z,987.6
2023-01-17T18:04:35.337Z,987.67
2023-01-17T18:06:35.906Z,987.67
2023-01-17T18:08:35.391Z,987.71
2023-01-17T18:10:36.030Z,987.71
2023-01-17T18:12:35.342Z,987.84
2023-01-17T18:14:36.121Z,987.84
2023-01-17T18:16:35.722Z,987.92
2023-01-17T18:18:35.756Z,987.92
2023-01-17T18:20:35.464Z,987.85
2023-01-17T18:22:35.934Z,987.85
2023-01-17T18:24:35.399Z,987.83
2023-01-17T18:26:35.804Z,987.83
2023-01-17T18:28:35.339Z,987.96
2023-01-17T18:30:35.751Z,987.96
2023-01-17T18:32:35.263Z,987.94
2023-01-17T18:34:35.855Z,987.94
2023-01-17T18:36:38.449Z,987.92
2023-01-17T18:38:35.724Z,987.92
2023-01-17T18:40:35.233Z,988.01
2023-01-17T18:42:35.826Z,988.01
2023-01-17T18:44:35.503Z,988.12
2023-01-17T18:46:36.232Z,988.12
2023-01-17T18:48:35.469Z,988.19
2023-01-17T18:50:36.000Z,988.19
2023-01-17T18:52:35.455Z,988.27
2023-01-17T18:54:36.001Z,988.27
2023-01-17T18:56:35.316Z,988.32
2023-01-17T18:58:35.724Z,988.32
2023-01-17T19:00:41.129Z,988.32
2023-01-17T19:02:35.946Z,988.32
2023-01-17T19:04:35.815Z,988.28
2023-01-17T19:06:35.908Z,988.28
2023-01-17T19:08:35.418Z,988.31
2023-01-17T19:10:35.843Z,988.31
2023-01-17T19:12:35.426Z,988.34
2023-01-17T19:14:35.966Z,988.34
2023-01-17T19:16:35.833Z,988.43
2023-01-17T19:18:35.904Z,988.43
2023-01-17T19:20:35.285Z,988.37
2023-01-17T19:22:35.767Z,988.37
2023-01-17T19:24:35.905Z,988.41
2023-01-17T19:26:35.955Z,988.41
2023-01-17T19:28:35.605Z,988.51
2023-01-17T19:30:36.009Z,988.51
2023-01-17T19:32:35.373Z,988.55
2023-01-17T19:34:35.727Z,988.55
2023-01-17T19:36:35.351Z,988.6
2023-01-17T19:38:35.853Z,988.6
2023-01-17T19:40:35.365Z,988.59
2023-01-17T19:42:35.837Z,988.59
2023-01-17T19:44:35.266Z,988.57
2023-01-17T19:46:36.086Z,988.57
2023-01-17T19:48:35.364Z,988.62
2023-01-17T19:50:35.852Z,988.62
2023-01-17T19:52:35.465Z,988.75
2023-01-17T19:54:35.841Z,988.75
2023-01-17T19:56:35.215Z,988.72
2023-01-17T19:58:35.852Z,988.75
2023-01-17T20:00:47.641Z,988.75
2023-01-17T20:02:36.594Z,988.76
2023-01-17T20:04:35.464Z,988.76
2023-01-17T20:06:35.152Z,988.74
2023-01-17T20:08:35.613Z,988.74
2023-01-17T20:10:35.265Z,988.77
2023-01-17T20:12:35.601Z,988.77
2023-01-17T20:14:35.259Z,988.85
2023-01-17T20:16:35.922Z,988.85
2023-01-17T20:18:35.946Z,988.79
2023-01-17T20:20:36.028Z,988.79
2023-01-17T20:22:35.931Z,988.89
2023-01-17T20:24:35.413Z,988.89
2023-01-17T20:26:36.088Z,988.78
2023-01-17T20:28:35.173Z,988.78
2023-01-17T20:30:53.357Z,988.85
2023-01-17T20:32:35.362Z,988.85
2023-01-17T20:34:35.931Z,988.87
2023-01-17T20:36:44.717Z,988.87
2023-01-17T20:38:35.906Z,988.95
2023-01-17T20:40:35.336Z,988.95
2023-01-17T20:42:35.008Z,988.94
2023-01-17T20:44:35.747Z,988.94
2023-01-17T20:46:35.745Z,988.92
2023-01-17T20:48:35.797Z,988.92
2023-01-17T20:50:35.395Z,988.93
2023-01-17T20:52:37.988Z,988.93
2023-01-17T20:54:35.470Z,988.97
2023-01-17T20:56:35.184Z,988.97
2023-01-17T20:58:35.876Z,989.21
2023-01-17T21:00:39.111Z,989.21
2023-01-17T21:02:36.310Z,989.14
2023-01-17T21:04:35.147Z,989.14
2023-01-17T21:06:35.812Z,989.21
2023-01-17T21:08:35.313Z,989.21
2023-01-17T21:10:35.826Z,989.22
2023-01-17T21:12:35.352Z,989.22
2023-01-17T21:14:35.919Z,989.16
2023-01-17T21:16:35.696Z,989.16
2023-01-17T21:18:35.973Z,989.15
2023-01-17T21:20:35.440Z,989.15
2023-01-17T21:22:36.012Z,989.22
2023-01-17T21:24:35.408Z,989.22
2023-01-17T21:26:35.836Z,989.23
2023-01-17T21:28:35.454Z,989.23
2023-01-17T21:30:36.096Z,989.27
2023-01-17T21:32:35.465Z,989.27
2023-01-17T21:34:36.870Z,989.23
2023-01-17T21:36:35.695Z,989.23
2023-01-17T21:38:35.243Z,989.2
2023-01-17T21:40:38.868Z,989.2
2023-01-17T21:42:35.253Z,989.21
2023-01-17T21:44:35.764Z,989.21
2023-01-17T21:46:35.492Z,989.31
2023-01-17T21:48:35.666Z,989.31
2023-01-17T21:50:51.110Z,989.3
2023-01-17T21:52:35.745Z,989.3
2023-01-17T21:54:35.042Z,989.29
2023-01-17T21:56:35.703Z,989.29
2023-01-17T21:58:35.414Z,989.27
2023-01-17T22:00:38.720Z,989.27
2023-01-17T22:02:35.664Z,989.4
2023-01-17T22:04:35.704Z,989.4
2023-01-17T22:06:35.496Z,989.33
2023-01-17T22:08:35.867Z,989.33
2023-01-17T22:10:35.362Z,989.3
2023-01-17T22:12:35.819Z,989.3
2023-01-17T22:14:35.387Z,989.48
2023-01-17T22:16:35.932Z,989.48
2023-01-17T22:18:35.316Z,989.52
2023-01-17T22:20:35.916Z,989.52
2023-01-17T22:22:35.306Z,989.58
2023-01-17T22:24:35.743Z,989.58
2023-01-17T22:26:35.213Z,989.47
2023-01-17T22:28:35.812Z,989.47
2023-01-17T22:30:35.577Z,989.52
2023-01-17T22:32:35.921Z,989.52
2023-01-17T22:34:35.589Z,989.49
2023-01-17T22:36:35.149Z,989.49
2023-01-17T22:38:35.672Z,989.51
2023-01-17T22:40:35.256Z,989.51
2023-01-17T22:42:35.683Z,989.47
2023-01-17T22:44:35.288Z,989.47
2023-01-17T22:46:36.105Z,989.63
2023-01-17T22:48:35.223Z,989.63
2023-01-17T22:50:35.846Z,989.58
2023-01-17T22:52:35.305Z,989.58
2023-01-17T22:54:35.891Z,989.68
2023-01-17T22:56:35.442Z,989.68
2023-01-17T22:58:36.185Z,989.64
2023-01-17T23:00:43.940Z,989.64
2023-01-17T23:02:35.175Z,989.71
2023-01-17T23:04:35.654Z,989.71
2023-01-17T23:06:35.308Z,989.66
2023-01-17T23:08:36.294Z,989.66
2023-01-17T23:10:35.412Z,989.58
2023-01-17T23:12:35.907Z,989.58
2023-01-17T23:14:35.515Z,989.64
2023-01-17T23:16:36.003Z,989.64
2023-01-17T23:18:35.249Z,989.64
2023-01-17T23:20:35.917Z,989.6
2023-01-17T23:22:35.416Z,989.6
2023-01-17T23:24:35.822Z,989.65
2023-01-17T23:26:35.172Z,989.65
2023-01-17T23:28:35.787Z,989.59
2023-01-17T23:30:35.400Z,989.59
2023-01-17T23:32:35.985Z,989.59
2023-01-17T23:34:35.365Z,989.59
2023-01-17T23:36:35.686Z,989.68
2023-01-17T23:38:35.165Z,989.68
2023-01-17T23:40:35.539Z,989.63
2023-01-17T23:42:35.102Z,989.63
2023-01-17T23:44:35.751Z,989.6
2023-01-17T23:46:35.311Z,989.6
2023-01-17T23:48:35.736Z,989.57
2023-01-17T23:50:35.425Z,989.57
2023-01-17T23:52:35.813Z,989.62
2023-01-17T23:54:35.315Z,989.62
2023-01-17T23:56:35.755Z,989.74
2023-01-17T23:58:35.387Z,989.74
